Time;durP1;ratioP1;P1;durP2;ratioP2;P2;SDS_P1;SDS_P2;PMS_P1;PMS_P2;Temp;Humidity;BMP_temperature;BMP_pressure;BME280_temperature;BME280_humidity;BME280_pressure;Samples;Min_cycle;Max_cycle;Signal;HPM_P1;HPM_P2
2023/04/05 00:01:01;;;;;;;17.40;8.70;;;;;;;11.23;71.03;98825.78;79204;1300;3014122;-63
2023/04/05 00:03:29;;;;;;;13.20;8.40;;;;;;;11.15;71.51;98822.38;79357;1296;3011914;-69
2023/04/05 00:05:58;;;;;;;18.30;8.10;;;;;;;11.14;71.30;98822.27;77978;1300;3056329;-65
2023/04/05 00:08:27;;;;;;;14.90;8.50;;;;;;;11.06;71.53;98812.27;79338;1300;3013111;-64
2023/04/05 00:10:54;;;;;;;15.70;8.50;;;;;;;10.95;71.93;98805.73;79224;1300;3011669;-67
2023/04/05 00:13:22;;;;;;;12.50;8.20;;;;;;;10.95;71.88;98808.73;78025;1297;3052801;-63
2023/04/05 00:15:50;;;;;;;14.30;8.20;;;;;;;10.89;71.99;98807.39;79239;1297;3011934;-66
2023/04/05 00:18:20;;;;;;;15.50;8.30;;;;;;;10.79;72.39;98807.42;79331;1296;3011757;-65
2023/04/05 00:20:51;;;;;;;16.20;9.30;;;;;;;10.70;72.69;98807.85;77973;1300;3057634;-63
2023/04/05 00:23:19;;;;;;;14.60;8.80;;;;;;;10.61;73.21;98801.88;79276;1300;3013226;-64
2023/04/05 00:25:47;;;;;;;12.90;6.10;;;;;;;10.50;73.81;98802.25;78045;1300;3025936;-66
2023/04/05 00:28:15;;;;;;;8.50;5.40;;;;;;;11.12;72.52;98802.74;79204;1300;3013575;-64
2023/04/05 00:30:43;;;;;;;12.00;6.90;;;;;;;11.72;70.09;98802.34;79257;1300;3011838;-63
2023/04/05 00:33:12;;;;;;;10.80;7.00;;;;;;;11.79;68.99;98800.93;77975;1298;3070777;-65
2023/04/05 00:35:40;;;;;;;13.10;8.00;;;;;;;11.76;69.26;98805.05;79231;1297;3013610;-65
2023/04/05 00:38:06;;;;;;;16.60;8.60;;;;;;;11.62;69.40;98805.00;79365;1296;3011887;-68
2023/04/05 00:40:35;;;;;;;12.80;8.30;;;;;;;11.53;69.73;98810.04;78072;1297;3052086;-65
2023/04/05 00:43:02;;;;;;;12.40;7.80;;;;;;;11.36;69.82;98801.52;79247;1300;3013600;-69
2023/04/05 00:45:30;;;;;;;15.90;8.80;;;;;;;11.25;69.96;98800.75;79259;1300;3011957;-65
2023/04/05 00:47:59;;;;;;;14.80;8.50;;;;;;;11.12;70.54;98801.21;78114;1296;3068233;-66
2023/04/05 00:50:29;;;;;;;13.50;8.30;;;;;;;10.99;70.88;98805.48;79213;1296;3013795;-63
2023/04/05 00:53:00;;;;;;;13.80;8.40;;;;;;;10.92;70.91;98804.89;78060;1297;3048610;-66
2023/04/05 00:55:27;;;;;;;16.90;9.20;;;;;;;10.74;71.93;98802.50;79239;1300;3015449;-64
2023/04/05 00:57:54;;;;;;;15.60;9.40;;;;;;;10.70;72.10;98802.64;79020;1298;3011674;-66
2023/04/05 01:00:23;;;;;;;17.20;9.40;;;;;;;10.60;72.59;98803.73;78056;1300;3053381;-66
2023/04/05 01:03:02;;;;;;;15.20;9.20;;;;;;;10.60;72.23;98802.46;79163;1300;3011923;-66
2023/04/05 01:05:48;;;;;;;17.50;10.30;;;;;;;10.46;73.11;98803.59;78089;1297;3053065;-65
2023/04/05 01:08:17;;;;;;;18.80;9.90;;;;;;;10.40;73.34;98800.23;78114;1297;3056038;-65
2023/04/05 01:10:47;;;;;;;10.80;6.60;;;;;;;10.37;73.52;98793.56;79297;1297;3013351;-68
2023/04/05 01:13:16;;;;;;;12.40;6.50;;;;;;;10.89;72.51;98785.53;77990;1300;3049228;-66
2023/04/05 01:15:43;;;;;;;13.20;7.90;;;;;;;11.48;70.88;98785.55;79378;1300;3013059;-64
2023/04/05 01:18:10;;;;;;;13.40;8.40;;;;;;;11.59;69.82;98783.84;79192;1297;3011738;-67
2023/04/05 01:20:51;;;;;;;16.60;8.90;;;;;;;11.48;69.97;98786.21;77947;1300;3054304;-63
2023/04/05 01:23:44;;;;;;;17.10;10.00;;;;;;;11.22;70.30;98787.66;78001;1300;3057015;-70
2023/04/05 01:26:44;;;;;;;16.40;9.70;;;;;;;10.99;71.37;98781.24;78020;1297;3050919;-64
2023/04/05 01:29:27;;;;;;;15.60;9.80;;;;;;;10.83;71.56;98778.76;77995;1297;3053954;-64
2023/04/05 01:32:07;;;;;;;15.20;9.20;;;;;;;10.55;72.74;98771.85;77845;1297;3051339;-63
2023/04/05 01:35:26;;;;;;;18.10;9.90;;;;;;;10.37;73.70;98769.77;77942;1297;3052743;-64
2023/04/05 01:37:58;;;;;;;20.30;9.90;;;;;;;10.34;73.73;98772.23;77429;1308;3054230;-66
2023/04/05 01:40:25;;;;;;;15.00;9.70;;;;;;;10.31;73.63;98774.35;79127;1300;3011742;-63
2023/04/05 01:42:53;;;;;;;17.50;10.20;;;;;;;10.24;73.88;98771.71;77765;1297;3028369;-63
2023/04/05 01:45:20;;;;;;;17.90;9.90;;;;;;;10.20;74.06;98769.85;79204;1297;3013170;-66
2023/04/05 01:47:46;;;;;;;17.70;9.40;;;;;;;10.22;73.53;98767.98;77402;1297;3015677;-65
2023/04/05 01:50:15;;;;;;;14.30;7.20;;;;;;;10.21;73.59;98767.20;77976;1302;3051083;-65
2023/04/05 01:52:41;;;;;;;11.30;6.90;;;;;;;10.72;72.70;98762.88;79228;1300;3013473;-65
2023/04/05 01:55:08;;;;;;;12.60;7.60;;;;;;;11.31;71.05;98764.38;79217;1297;3011621;-64
2023/04/05 01:57:39;;;;;;;14.60;8.70;;;;;;;11.41;70.39;98760.77;78072;1300;3052708;-65
2023/04/05 02:00:12;;;;;;;17.60;8.90;;;;;;;11.21;70.18;98760.52;79070;1297;3011675;-64
2023/04/05 02:02:46;;;;;;;17.40;9.10;;;;;;;11.07;70.67;98752.30;78023;1300;3050167;-66
2023/04/05 02:05:12;;;;;;;14.30;8.90;;;;;;;10.96;71.01;98748.36;79197;1298;3012899;-63
2023/04/05 02:07:40;;;;;;;17.80;9.90;;;;;;;10.75;71.41;98745.35;79174;1300;3011662;-63
2023/04/05 02:10:08;;;;;;;17.00;9.90;;;;;;;10.63;71.89;98741.32;77986;1301;3028200;-67
2023/04/05 02:12:35;;;;;;;17.80;10.00;;;;;;;10.56;72.02;98738.52;79242;1301;3013555;-66
2023/04/05 02:15:08;;;;;;;17.80;9.80;;;;;;;10.47;72.01;98736.30;78083;1300;3058303;-64
2023/04/05 02:17:38;;;;;;;17.70;10.20;;;;;;;10.29;73.09;98733.41;79220;1296;3014036;-65
2023/04/05 02:20:07;;;;;;;21.00;10.20;;;;;;;10.17;73.77;98727.55;78056;1300;3050327;-65
2023/04/05 02:22:35;;;;;;;14.40;9.70;;;;;;;10.11;73.99;98720.79;79269;1297;3011591;-68
2023/04/05 02:25:09;;;;;;;18.80;10.10;;;;;;;10.08;73.76;98725.72;78595;1303;3013750;-66
2023/04/05 02:27:43;;;;;;;17.30;9.70;;;;;;;10.02;73.92;98737.70;77907;1297;3069969;-65
2023/04/05 02:30:12;;;;;;;12.80;7.50;;;;;;;10.04;73.57;98741.42;79305;1297;3013135;-64
2023/04/05 02:32:46;;;;;;;12.20;7.30;;;;;;;10.63;73.23;98737.27;78683;1299;3011904;-65
2023/04/05 02:35:20;;;;;;;13.10;7.10;;;;;;;11.25;71.47;98734.70;77991;1298;3049656;-66
2023/04/05 02:37:46;;;;;;;15.70;8.30;;;;;;;11.31;70.45;98731.79;79423;1297;3013093;-67
2023/04/05 02:40:14;;;;;;;15.30;8.90;;;;;;;11.21;70.53;98719.71;79232;1298;3012647;-66
2023/04/05 02:42:43;;;;;;;15.10;9.20;;;;;;;11.05;70.67;98718.93;78032;1300;3053848;-66
2023/04/05 02:45:10;;;;;;;16.00;9.70;;;;;;;10.82;71.02;98715.73;79278;1297;3014204;-65
2023/04/05 02:47:38;;;;;;;15.90;9.80;;;;;;;10.64;71.54;98718.30;79210;1297;3013155;-67
2023/04/05 02:50:06;;;;;;;18.00;9.60;;;;;;;10.47;72.08;98717.26;78172;1300;3050109;-65
2023/04/05 02:52:42;;;;;;;15.20;10.00;;;;;;;10.25;72.91;98713.88;77974;1300;3053397;-65
2023/04/05 02:55:09;;;;;;;18.10;10.90;;;;;;;10.06;73.68;98706.60;79417;1298;3013606;-66
2023/04/05 02:57:36;;;;;;;18.10;11.20;;;;;;;9.96;74.25;98706.11;79266;1300;3011574;-66
2023/04/05 03:00:10;;;;;;;19.90;11.40;;;;;;;9.95;74.14;98706.55;78100;1300;3069467;-66
2023/04/05 03:02:38;;;;;;;17.40;10.80;;;;;;;9.86;74.33;98705.40;79317;1300;3011722;-67
2023/04/05 03:05:08;;;;;;;13.90;7.10;;;;;;;9.81;74.70;98709.78;78690;1297;3011699;-65
2023/04/05 03:07:35;;;;;;;13.30;7.00;;;;;;;10.26;74.07;98706.10;79454;1300;3013072;-63
2023/04/05 03:10:07;;;;;;;16.20;9.20;;;;;;;10.91;72.45;98716.51;78694;1297;3012161;-65
2023/04/05 03:12:35;;;;;;;14.80;8.50;;;;;;;10.92;71.53;98714.70;79430;1296;3011592;-64
2023/04/05 03:15:06;;;;;;;17.20;9.60;;;;;;;10.79;71.62;98710.56;78196;1300;3052671;-65
2023/04/05 03:17:36;;;;;;;15.70;9.70;;;;;;;10.63;72.08;98702.63;79186;1300;3013026;-65
2023/04/05 03:20:07;;;;;;;16.30;9.50;;;;;;;10.45;72.47;98691.98;78327;1297;3069317;-65
2023/04/05 03:22:35;;;;;;;17.70;10.90;;;;;;;10.23;73.13;98692.64;79401;1300;3013209;-66
2023/04/05 03:25:04;;;;;;;15.20;9.80;;;;;;;10.12;73.68;98693.29;78171;1296;3026648;-66
2023/04/05 03:27:32;;;;;;;16.40;10.10;;;;;;;10.00;73.76;98687.79;79563;1297;3011709;-65
2023/04/05 03:30:06;;;;;;;17.00;10.30;;;;;;;9.94;73.51;98677.90;78141;1297;3054441;-67
2023/04/05 03:32:42;;;;;;;17.80;10.10;;;;;;;9.82;74.27;98677.19;78099;1299;3049539;-66
2023/04/05 03:35:21;;;;;;;15.30;10.00;;;;;;;9.69;74.84;98675.98;78038;1300;3052328;-66
2023/04/05 03:37:49;;;;;;;14.20;6.90;;;;;;;9.61;75.52;98669.34;79353;1297;3013614;-65
2023/04/05 03:40:16;;;;;;;14.10;7.80;;;;;;;10.15;75.08;98662.94;79271;1300;3011917;-62
2023/04/05 03:42:44;;;;;;;15.30;7.90;;;;;;;10.63;73.10;98657.73;78163;1300;3056521;-65
2023/04/05 03:45:12;;;;;;;15.80;9.10;;;;;;;10.73;72.41;98659.48;79420;1296;3013729;-64
2023/04/05 03:47:39;;;;;;;16.80;9.80;;;;;;;10.60;72.64;98656.06;79438;1298;3011236;-67
2023/04/05 03:50:08;;;;;;;16.50;9.90;;;;;;;10.44;73.10;98653.52;78198;1299;3051979;-67
2023/04/05 03:52:35;;;;;;;19.50;10.80;;;;;;;10.27;73.60;98651.28;79448;1300;3015296;-70
2023/04/05 03:55:02;;;;;;;16.20;9.70;;;;;;;10.07;74.04;98651.81;79520;1298;3011964;-68
2023/04/05 03:57:31;;;;;;;16.00;10.20;;;;;;;9.98;74.27;98648.05;78240;1297;3058333;-67
2023/04/05 04:00:16;;;;;;;18.90;10.70;;;;;;;9.84;74.87;98650.25;79268;1297;3011755;-66
2023/04/05 04:02:46;;;;;;;19.10;11.00;;;;;;;9.79;75.19;98646.27;77959;1300;3053894;-62
2023/04/05 04:05:18;;;;;;;17.10;9.50;;;;;;;9.75;75.35;98644.80;79265;1298;3011951;-61
2023/04/05 04:07:49;;;;;;;12.00;6.50;;;;;;;9.77;75.19;98645.69;78016;1300;3053135;-60
2023/04/05 04:10:17;;;;;;;11.70;6.60;;;;;;;10.27;74.82;98633.42;79173;1300;3015876;-60
2023/04/05 04:12:48;;;;;;;13.60;7.90;;;;;;;10.78;72.93;98631.65;78655;1297;3011630;-59
2023/04/05 04:15:16;;;;;;;17.70;7.70;;;;;;;10.85;72.14;98635.70;79215;1298;3014263;-61
2023/04/05 04:18:10;;;;;;;18.30;8.80;;;;;;;10.72;72.41;98640.32;77917;1300;3050919;-60
2023/04/05 04:21:05;;;;;;;16.20;9.10;;;;;;;10.57;72.83;98631.06;77988;1298;3055215;-62
2023/04/05 04:23:51;;;;;;;17.10;10.20;;;;;;;10.41;72.94;98622.46;78022;1299;3050617;-62
2023/04/05 04:26:55;;;;;;;20.90;10.30;;;;;;;10.27;73.47;98619.92;77588;1306;3054151;-62
2023/04/05 04:29:46;;;;;;;18.70;9.70;;;;;;;10.08;74.45;98625.84;77959;1299;3054388;-60
2023/04/05 04:32:54;;;;;;;14.10;8.90;;;;;;;9.98;75.06;98615.16;77969;1300;3069405;-62
2023/04/05 04:35:48;;;;;;;17.60;9.00;;;;;;;9.94;75.02;98608.96;77941;1296;3053306;-61
2023/04/05 04:38:20;;;;;;;18.70;9.70;;;;;;;9.96;75.03;98613.25;78668;1294;3012267;-61
2023/04/05 04:41:09;;;;;;;10.70;6.30;;;;;;;9.95;75.27;98609.62;77913;1297;3056970;-64
2023/04/05 04:43:57;;;;;;;13.90;7.70;;;;;;;10.73;73.40;98609.23;78014;1300;3051323;-62
2023/04/05 04:46:45;;;;;;;16.20;8.50;;;;;;;11.22;71.55;98599.02;77976;1299;3055696;-62
2023/04/05 04:49:22;;;;;;;14.70;8.60;;;;;;;11.26;71.02;98590.81;78037;1300;3050551;-62
2023/04/05 04:51:51;;;;;;;16.30;9.20;;;;;;;11.17;70.82;98602.20;79244;1300;3012815;-63
2023/04/05 04:54:21;;;;;;;15.90;9.80;;;;;;;11.02;71.23;98594.27;78132;1300;3054027;-62
2023/04/05 04:56:49;;;;;;;15.20;9.50;;;;;;;10.91;71.58;98596.14;79370;1297;3013686;-62
2023/04/05 04:59:16;;;;;;;16.80;9.80;;;;;;;10.71;72.15;98589.39;79191;1296;3011495;-63
2023/04/05 05:01:47;;;;;;;17.40;10.50;;;;;;;10.70;72.51;98591.91;78012;1300;3050353;-61
2023/04/05 05:04:14;;;;;;;17.80;10.20;;;;;;;10.55;72.96;98596.73;79141;1297;3013097;-62
2023/04/05 05:06:41;;;;;;;19.10;10.90;;;;;;;10.55;72.92;98594.39;79036;1296;3013765;-58
2023/04/05 05:09:09;;;;;;;20.60;10.90;;;;;;;10.52;73.12;98594.15;77895;1300;3052628;-62
2023/04/05 05:11:49;;;;;;;17.20;10.00;;;;;;;10.48;73.55;98596.16;78070;1300;3070645;-60
2023/04/05 05:14:16;;;;;;;21.00;11.00;;;;;;;10.48;73.71;98594.98;79230;1298;3013380;-62
2023/04/05 05:16:43;;;;;;;11.00;6.90;;;;;;;10.49;73.80;98601.02;79210;1296;3013239;-64
2023/04/05 05:19:12;;;;;;;12.40;7.50;;;;;;;11.03;72.69;98588.00;78047;1300;3053537;-62
2023/04/05 05:21:45;;;;;;;;;;;;;;;11.72;70.30;98593.89;79225;1296;3011730;-62
2023/04/05 05:24:15;;;;;;;10.60;6.60;;;;;;;11.95;69.64;98595.81;78023;1299;3052587;-60
2023/04/05 05:26:42;;;;;;;15.90;9.10;;;;;;;11.87;69.09;98600.88;79255;1300;3021273;-61
2023/04/05 05:29:09;;;;;;;16.50;9.50;;;;;;;11.71;69.52;98600.81;79182;1296;3011591;-63
2023/04/05 05:31:42;;;;;;;17.90;10.10;;;;;;;11.62;69.96;98605.80;78137;1295;3056167;-66
2023/04/05 05:34:09;;;;;;;15.70;9.30;;;;;;;11.55;70.25;98603.02;79650;1298;3013382;-62
2023/04/05 05:36:37;;;;;;;17.40;9.10;;;;;;;11.56;70.35;98603.59;79518;1300;3011537;-62
2023/04/05 05:39:06;;;;;;;18.40;10.70;;;;;;;11.45;70.69;98599.70;78242;1300;3053585;-65
2023/04/05 05:41:33;;;;;;;16.70;10.20;;;;;;;11.45;70.85;98592.70;79557;1297;3012729;-64
2023/04/05 05:43:59;;;;;;;21.90;11.00;;;;;;;11.45;70.72;98597.25;79452;1300;3012763;-63
2023/04/05 05:46:27;;;;;;;18.90;9.10;;;;;;;11.37;71.04;98592.25;78130;1300;3056772;-63
2023/04/05 05:48:54;;;;;;;14.10;8.90;;;;;;;11.45;71.03;98592.54;79237;1296;3013431;-63
2023/04/05 05:51:21;;;;;;;16.30;9.40;;;;;;;11.50;70.88;98594.11;79216;1295;3011607;-66
2023/04/05 05:53:49;;;;;;;19.40;10.30;;;;;;;11.53;70.81;98592.05;78157;1300;3025866;-65
2023/04/05 05:56:15;;;;;;;16.90;10.30;;;;;;;11.56;70.68;98582.24;79313;1300;3019040;-64
2023/04/05 05:58:42;;;;;;;17.90;8.90;;;;;;;11.59;70.61;98580.19;79354;1298;3011678;-65
2023/04/05 06:01:10;;;;;;;16.40;8.90;;;;;;;11.72;69.84;98580.98;78105;1295;3026392;-65
2023/04/05 06:03:38;;;;;;;16.80;9.30;;;;;;;11.73;70.22;98572.80;79475;1297;3013919;-65
2023/04/05 06:06:07;;;;;;;13.80;8.70;;;;;;;11.59;70.66;98577.08;79232;1297;3011654;-70
2023/04/05 06:08:35;;;;;;;16.00;9.40;;;;;;;11.69;70.50;98576.99;78600;1300;3053566;-69
2023/04/05 06:11:01;;;;;;;15.40;8.90;;;;;;;11.81;69.94;98576.73;79540;1295;3013416;-69
2023/04/05 06:13:29;;;;;;;21.70;9.80;;;;;;;11.74;70.21;98580.63;79650;1300;3012661;-71
2023/04/05 06:16:00;;;;;;;15.80;8.80;;;;;;;11.80;70.25;98582.77;78286;1301;3057368;-69
2023/04/05 06:18:26;;;;;;;15.20;8.20;;;;;;;11.88;69.72;98581.27;79458;1298;3012762;-67
2023/04/05 06:20:54;;;;;;;14.90;8.00;;;;;;;11.94;69.34;98574.27;79430;1300;3013307;-67
2023/04/05 06:23:27;;;;;;;12.40;8.00;;;;;;;11.94;69.59;98570.77;78236;1298;3052790;-67
2023/04/05 06:25:55;;;;;;;15.00;8.20;;;;;;;11.97;69.50;98568.61;79491;1300;3013787;-68
2023/04/05 06:28:22;;;;;;;15.70;8.00;;;;;;;12.03;69.22;98564.79;79418;1298;3013464;-67
2023/04/05 06:30:54;;;;;;;13.70;8.40;;;;;;;12.07;69.34;98562.69;78329;1298;3057103;-72
2023/04/05 06:33:21;;;;;;;15.80;8.70;;;;;;;12.15;69.08;98562.67;79470;1295;3013148;-72
2023/04/05 06:35:47;;;;;;;14.70;7.80;;;;;;;12.13;69.45;98555.95;79571;1295;3011879;-71
2023/04/05 06:38:15;;;;;;;17.30;7.90;;;;;;;12.22;69.45;98552.26;78319;1298;3052500;-68
2023/04/05 06:40:42;;;;;;;17.10;7.80;;;;;;;12.30;68.87;98545.92;79495;1297;3018759;-67
2023/04/05 06:43:15;;;;;;;16.90;8.40;;;;;;;12.40;69.22;98542.64;78916;1298;3011707;-72
2023/04/05 06:45:41;;;;;;;15.20;8.20;;;;;;;12.47;68.97;98542.50;79602;1296;3013981;-70
2023/04/05 06:48:10;;;;;;;17.10;8.40;;;;;;;12.48;68.74;98537.09;79552;1294;3012634;-69
2023/04/05 06:50:39;;;;;;;15.50;7.30;;;;;;;12.54;69.04;98535.36;78214;1296;3055158;-69
2023/04/05 06:53:06;;;;;;;18.70;7.90;;;;;;;12.67;68.67;98534.66;79559;1298;3013748;-69
2023/04/05 06:55:33;;;;;;;16.40;8.90;;;;;;;12.66;68.74;98531.03;79433;1300;3012681;-68
2023/04/05 06:58:01;;;;;;;14.70;7.40;;;;;;;12.78;68.56;98537.45;78254;1294;3069913;-70
2023/04/05 07:00:33;;;;;;;14.10;7.80;;;;;;;12.93;67.75;98535.79;79514;1294;3011583;-69
2023/04/05 07:03:03;;;;;;;16.70;7.90;;;;;;;12.98;67.64;98535.70;78250;1300;3057196;-72
2023/04/05 07:05:30;;;;;;;13.00;7.10;;;;;;;12.95;67.73;98527.39;79560;1298;3013472;-72
2023/04/05 07:08:02;;;;;;;15.20;7.10;;;;;;;13.07;67.38;98533.76;78450;1297;3050192;-70
2023/04/05 07:10:29;;;;;;;9.60;6.20;;;;;;;13.20;67.03;98537.75;79564;1300;3013347;-73
2023/04/05 07:12:56;;;;;;;12.30;6.00;;;;;;;13.26;66.54;98537.21;79456;1298;3011730;-73
2023/04/05 07:15:24;;;;;;;11.80;6.50;;;;;;;13.34;66.37;98536.00;78377;1297;3027884;-71
2023/04/05 07:17:51;;;;;;;11.60;5.80;;;;;;;13.49;65.85;98534.02;79513;1300;3012858;-70
2023/04/05 07:20:18;;;;;;;15.30;6.60;;;;;;;13.59;65.66;98528.38;79488;1298;3013706;-71
2023/04/05 07:22:52;;;;;;;12.40;5.90;;;;;;;13.64;64.63;98522.30;78380;1298;3049843;-73
2023/04/05 07:25:19;;;;;;;13.20;6.10;;;;;;;13.74;64.20;98525.85;79417;1300;3011581;-73
2023/04/05 07:27:45;;;;;;;12.30;6.10;;;;;;;13.87;63.60;98527.38;79520;1298;3011794;-72
2023/04/05 07:30:16;;;;;;;23.60;6.90;;;;;;;13.92;63.75;98526.05;78264;1298;3053240;-71
2023/04/05 07:32:43;;;;;;;14.90;5.90;;;;;;;13.98;63.66;98521.07;79457;1301;3019066;-74
2023/04/05 07:35:10;;;;;;;13.90;6.60;;;;;;;13.99;63.06;98526.67;79383;1296;3013651;-72
2023/04/05 07:37:40;;;;;;;10.70;5.90;;;;;;;14.00;63.04;98522.44;78288;1297;3049536;-70
2023/04/05 07:53:55;;;;;;;10.70;5.40;;;;;;;14.02;62.69;98519.38;80235;1301;3013076;-72
2023/04/05 07:56:23;;;;;;;14.20;5.30;;;;;;;14.20;62.15;98512.38;79112;1301;3013537;-74
2023/04/05 07:58:53;;;;;;;17.20;6.10;;;;;;;14.25;61.36;98502.67;79224;1302;3011776;-72
2023/04/05 08:01:26;;;;;;;14.00;5.70;;;;;;;14.37;61.28;98493.65;77841;1307;3052614;-74
2023/04/05 08:03:54;;;;;;;14.90;5.80;;;;;;;14.35;60.96;98493.79;79135;1304;3011475;-73
2023/04/05 08:06:22;;;;;;;13.50;5.40;;;;;;;14.47;60.86;98498.00;76061;1296;5377231;-72
2023/04/05 08:08:49;;;;;;;10.10;5.50;;;;;;;14.53;60.77;98496.52;79403;1296;3015334;-72
2023/04/05 08:11:16;;;;;;;12.40;5.40;;;;;;;14.58;60.74;98501.33;79469;1301;3011640;-72
2023/04/05 08:13:45;;;;;;;14.80;6.00;;;;;;;14.72;60.85;98496.94;78210;1299;3049346;-70
2023/04/05 08:16:12;;;;;;;12.70;5.60;;;;;;;14.78;60.53;98497.27;79549;1299;3019436;-72
2023/04/05 08:18:41;;;;;;;12.80;6.10;;;;;;;14.96;60.44;98492.59;79312;1298;3011647;-73
2023/04/05 08:21:09;;;;;;;9.90;5.30;;;;;;;15.07;60.32;98484.30;78168;1300;3052441;-72
2023/04/05 08:23:37;;;;;;;17.00;5.90;;;;;;;15.18;59.60;98486.52;79266;1300;3013335;-74
2023/04/05 08:26:04;;;;;;;15.00;5.10;;;;;;;15.29;59.41;98483.67;79100;1298;3011646;-71
2023/04/05 08:28:33;;;;;;;9.00;5.20;;;;;;;15.37;58.66;98481.15;78180;1301;3049780;-71
2023/04/05 08:31:00;;;;;;;10.90;4.90;;;;;;;15.46;58.35;98478.84;79363;1300;3013551;-68
2023/04/05 08:33:29;;;;;;;12.30;5.50;;;;;;;15.60;58.85;98477.30;79391;1295;3011764;-68
2023/04/05 08:36:03;;;;;;;14.10;5.50;;;;;;;15.64;57.79;98476.03;78166;1301;3051575;-69
2023/04/05 08:38:30;;;;;;;11.50;5.20;;;;;;;15.68;57.95;98471.83;79353;1300;3011599;-75
2023/04/05 08:41:03;;;;;;;10.80;5.00;;;;;;;15.72;57.19;98475.24;78096;1304;3048423;-70
2023/04/05 08:43:56;;;;;;;11.20;4.80;;;;;;;15.77;56.06;98474.96;78776;1298;3011769;-69
2023/04/05 08:46:25;;;;;;;8.50;4.60;;;;;;;15.78;56.20;98478.24;78260;1299;3052744;-73
2023/04/05 08:48:52;;;;;;;11.70;5.10;;;;;;;15.88;56.61;98480.26;79191;1303;3013697;-70
2023/04/05 08:51:22;;;;;;;10.80;3.90;;;;;;;15.99;56.10;98477.30;79331;1300;3013420;-71
2023/04/05 08:53:50;;;;;;;11.40;4.10;;;;;;;16.02;54.91;98470.08;78133;1300;3069329;-69
2023/04/05 08:56:23;;;;;;;9.90;4.30;;;;;;;16.01;54.65;98477.20;79339;1296;3011612;-71
2023/04/05 08:59:03;;;;;;;;;;;;;;;16.01;54.40;98480.23;78230;1300;3048532;-68
2023/04/05 09:01:32;;;;;;;6.60;4.00;;;;;;;15.95;54.14;98463.34;77983;1303;3052254;-70
2023/04/05 09:04:04;;;;;;;10.00;4.60;;;;;;;15.95;54.22;98464.45;79388;1301;3011680;-74
2023/04/05 09:06:34;;;;;;;7.10;3.80;;;;;;;15.95;54.65;98466.55;78040;1301;3052436;-69
2023/04/05 09:09:02;;;;;;;10.40;3.90;;;;;;;15.93;54.80;98466.76;79305;1300;3013072;-72
2023/04/05 09:11:32;;;;;;;11.20;4.40;;;;;;;15.88;54.58;98468.27;78850;1301;3013542;-65
2023/04/05 09:14:02;;;;;;;10.10;4.30;;;;;;;15.90;54.68;98474.55;79463;1301;3013436;-70
2023/04/05 09:16:38;;;;;;;14.10;4.40;;;;;;;15.86;54.47;98480.70;78134;1300;3050875;-64
2023/04/05 09:19:05;;;;;;;11.10;4.30;;;;;;;15.88;54.82;98479.76;79467;1296;3013725;-68
2023/04/05 09:22:00;;;;;;;13.30;4.10;;;;;;;15.90;54.64;98468.27;79244;1301;3011405;-72
2023/04/05 09:24:33;;;;;;;7.80;3.60;;;;;;;15.95;55.09;98465.85;78209;1298;3053912;-70
2023/04/05 09:27:07;;;;;;;7.80;3.90;;;;;;;15.97;55.05;98458.19;79483;1296;3011674;-70
2023/04/05 09:29:36;;;;;;;8.90;3.90;;;;;;;15.84;55.20;98471.68;78046;1303;3051540;-68
2023/04/05 09:32:06;;;;;;;7.00;4.20;;;;;;;15.75;55.63;98482.72;79336;1296;3011700;-66
2023/04/05 09:34:36;;;;;;;10.40;4.50;;;;;;;15.77;55.54;98473.87;78130;1301;3026890;-68
2023/04/05 09:37:19;;;;;;;9.50;4.10;;;;;;;15.70;55.46;98481.34;79375;1301;3012695;-70
2023/04/05 09:39:53;;;;;;;;;;;;;;;15.73;55.04;98483.44;78132;1300;3053087;-69
2023/04/05 09:42:21;;;;;;;7.20;3.80;;;;;;;15.77;54.61;98477.97;79334;1301;3011678;-65
2023/04/05 09:44:51;;;;;;;9.20;3.50;;;;;;;15.87;54.50;98484.45;78251;1301;3054194;-67
2023/04/05 09:47:19;;;;;;;13.20;4.20;;;;;;;15.99;54.56;98482.91;79455;1302;3013688;-65
2023/04/05 09:49:48;;;;;;;9.60;3.50;;;;;;;15.99;54.62;98483.50;78899;1301;3012581;-70
2023/04/05 09:52:28;;;;;;;11.30;4.50;;;;;;;16.01;54.39;98483.79;79564;1296;3013039;-68
2023/04/05 09:54:57;;;;;;;7.60;3.50;;;;;;;16.15;54.52;98503.80;78274;1300;3053143;-72
2023/04/05 09:57:25;;;;;;;12.50;4.10;;;;;;;16.11;54.50;98516.42;79530;1301;3013392;-72
2023/04/05 09:59:56;;;;;;;9.30;3.50;;;;;;;16.20;54.61;98515.84;78313;1305;3053452;-70
2023/04/05 10:02:23;;;;;;;6.40;4.00;;;;;;;16.38;54.21;98511.96;79440;1304;3013799;-70
2023/04/05 10:04:50;;;;;;;9.30;3.90;;;;;;;16.56;53.64;98503.80;79591;1295;3013238;-67
2023/04/05 10:22:51;;;;;;;9.80;3.30;;;;;;;17.05;47.72;98498.65;80270;1298;3013797;-67
2023/04/05 10:25:51;;;;;;;9.30;3.70;;;;;;;17.16;48.42;98494.83;77935;1299;3054726;-67
2023/04/05 10:28:32;;;;;;;9.30;3.30;;;;;;;17.43;47.83;98495.77;77897;1305;3050015;-72
2023/04/05 10:31:04;;;;;;;12.60;3.30;;;;;;;17.59;47.39;98488.48;77953;1303;3053263;-68
2023/04/05 10:33:40;;;;;;;9.80;3.00;;;;;;;17.61;47.38;98485.42;79281;1303;3013743;-68
2023/04/05 10:36:21;;;;;;;7.30;3.00;;;;;;;17.57;47.04;98481.20;76280;1297;3068297;-67
2023/04/05 10:39:16;;;;;;;9.60;3.60;;;;;;;17.56;47.32;98480.44;78156;1302;3049091;-75
2023/04/05 10:41:47;;;;;;;12.00;3.30;;;;;;;17.59;47.88;98477.72;78148;1302;3058664;-68
2023/04/05 10:44:14;;;;;;;7.90;3.30;;;;;;;17.57;47.69;98477.55;79391;1298;3011581;-69
2023/04/05 10:46:44;;;;;;;11.60;3.30;;;;;;;17.67;47.85;98478.63;78142;1297;3052521;-69
2023/04/05 10:49:21;;;;;;;10.10;3.10;;;;;;;17.73;47.87;98478.11;79647;1296;3013744;-72
2023/04/05 10:51:49;;;;;;;14.60;3.60;;;;;;;17.75;47.78;98473.16;78273;1299;3053790;-62
2023/04/05 10:54:16;;;;;;;8.00;3.00;;;;;;;17.74;47.51;98468.13;79326;1297;3019081;-67
2023/04/05 10:56:45;;;;;;;11.40;3.40;;;;;;;17.74;46.82;98473.94;79317;1296;3011940;-72
2023/04/05 10:59:13;;;;;;;15.80;4.20;;;;;;;17.75;47.05;98469.98;78176;1303;3050016;-66
2023/04/05 11:01:40;;;;;;;19.60;4.00;;;;;;;17.72;45.84;98469.41;79399;1297;3012931;-68
2023/04/05 11:04:14;;;;;;;10.60;3.40;;;;;;;17.68;45.13;98466.95;79481;1298;3011803;-68
2023/04/05 11:06:46;;;;;;;15.70;3.40;;;;;;;17.66;43.89;98468.11;78160;1300;3053456;-73
2023/04/05 11:09:17;;;;;;;20.40;3.80;;;;;;;17.74;43.86;98470.21;79518;1296;3011733;-66
2023/04/05 11:11:47;;;;;;;11.40;2.90;;;;;;;17.82;43.89;98470.86;78350;1298;3051339;-68
2023/04/05 11:14:22;;;;;;;17.70;3.30;;;;;;;17.83;43.83;98468.92;79437;1296;3011550;-68
2023/04/05 11:16:55;;;;;;;17.80;4.60;;;;;;;17.84;43.74;98463.48;78189;1297;3050680;-74
2023/04/05 11:19:44;;;;;;;17.90;3.40;;;;;;;17.73;43.92;98456.34;79406;1296;3013596;-74
2023/04/05 11:22:12;;;;;;;13.40;3.10;;;;;;;17.63;44.22;98453.33;78148;1298;3050771;-72
2023/04/05 11:24:52;;;;;;;14.80;3.10;;;;;;;17.65;43.95;98448.58;79601;1300;3013432;-72
2023/04/05 11:27:30;;;;;;;24.00;3.50;;;;;;;17.65;44.14;98439.19;78216;1296;3069240;-69
2023/04/05 11:29:59;;;;;;;22.10;3.40;;;;;;;17.65;44.25;98432.11;78254;1313;3051494;-67
2023/04/05 11:32:42;;;;;;;16.00;3.60;;;;;;;17.59;44.54;98426.72;79341;1297;3013334;-70
2023/04/05 11:35:14;;;;;;;13.60;2.50;;;;;;;17.58;44.58;98419.45;78073;1302;3053204;-69
2023/04/05 11:37:59;;;;;;;16.20;2.90;;;;;;;17.62;45.04;98415.61;79437;1298;3012892;-66
2023/04/05 11:40:34;;;;;;;17.60;3.70;;;;;;;17.58;45.09;98410.98;77914;1300;3054043;-72
2023/04/05 11:43:08;;;;;;;18.40;2.90;;;;;;;17.53;45.18;98410.52;78895;1300;3012891;-73
2023/04/05 11:45:37;;;;;;;16.80;3.70;;;;;;;17.61;45.52;98410.33;79336;1296;3011607;-64
2023/04/05 11:48:06;;;;;;;16.10;3.40;;;;;;;17.68;45.27;98406.64;78250;1296;3069029;-70
2023/04/05 11:50:33;;;;;;;18.20;3.10;;;;;;;17.72;45.73;98398.92;79369;1296;3012885;-69
2023/04/05 11:53:12;;;;;;;19.20;3.00;;;;;;;17.77;45.64;98395.52;79288;1297;3013877;-65
2023/04/05 11:55:42;;;;;;;22.80;3.80;;;;;;;17.86;45.41;98388.37;78162;1296;3054752;-67
2023/04/05 11:58:16;;;;;;;17.50;3.20;;;;;;;17.91;44.98;98384.70;79503;1300;3012958;-69